createdAt,value
2023-03-18T00:02:10.399Z,91.80
2023-03-18T00:04:37.409Z,91.90
2023-03-18T00:07:04.358Z,91.90
2023-03-18T00:09:32.361Z,91.90
2023-03-18T00:11:59.365Z,91.90
2023-03-18T00:14:26.640Z,92.00
2023-03-18T00:16:53.589Z,92.10
2023-03-18T00:19:20.566Z,92.00
2023-03-18T00:21:47.566Z,92.20
2023-03-18T00:24:15.370Z,92.10
2023-03-18T00:26:43.594Z,92.00
2023-03-18T00:29:10.510Z,92.10
2023-03-18T05:32:02.795Z,92.00
2023-03-18T05:34:29.691Z,92.10
2023-03-18T05:36:57.636Z,92.10
2023-03-18T05:39:24.568Z,91.90
2023-03-18T05:41:52.522Z,91.80
2023-03-18T05:44:19.597Z,91.90
2023-03-18T05:46:46.584Z,91.90
2023-03-18T05:49:13.540Z,92.00
2023-03-18T05:51:40.450Z,91.60
2023-03-18T05:54:07.548Z,91.70
2023-03-18T05:56:34.918Z,91.80
2023-03-18T05:59:02.041Z,91.80
2023-03-18T06:01:30.731Z,91.90
2023-03-18T06:03:57.657Z,91.90
2023-03-18T06:06:24.722Z,92.00
2023-03-18T06:08:52.899Z,91.90
2023-03-18T06:11:19.809Z,91.90
2023-03-18T06:13:46.690Z,92.00
2023-03-18T06:16:14.287Z,92.10
2023-03-18T06:18:41.605Z,92.10
2023-03-18T06:21:09.699Z,92.20
2023-03-18T06:23:36.742Z,92.20
2023-03-18T06:26:04.197Z,92.10
2023-03-18T06:28:31.140Z,92.10
2023-03-18T06:30:58.468Z,92.10
2023-03-18T06:33:25.762Z,92.10
2023-03-18T06:35:53.305Z,92.20
2023-03-18T06:38:20.630Z,92.20
2023-03-18T06:40:47.513Z,92.20
2023-03-18T06:43:14.515Z,92.20
2023-03-18T06:45:41.387Z,92.20
2023-03-18T06:48:10.343Z,92.00
2023-03-18T06:50:39.508Z,92.10
2023-03-18T06:53:07.246Z,92.10
2023-03-18T06:55:34.850Z,92.20
2023-03-18T06:58:02.276Z,92.20
2023-03-18T07:00:29.367Z,92.30
2023-03-18T07:02:56.293Z,92.40
2023-03-18T07:05:23.825Z,92.50
2023-03-18T07:07:51.060Z,92.60
2023-03-18T07:10:25.519Z,92.70
2023-03-18T07:12:52.476Z,92.80
2023-03-18T07:15:22.741Z,92.90
2023-03-18T07:17:50.168Z,93.00
2023-03-18T07:20:17.958Z,93.10
2023-03-18T07:22:46.745Z,93.20
2023-03-18T07:25:14.010Z,93.20
2023-03-18T07:27:42.185Z,93.10
2023-03-18T07:30:09.955Z,93.20
2023-03-18T07:32:37.395Z,93.30
2023-03-18T07:35:05.642Z,93.40
2023-03-18T07:37:33.334Z,93.40
2023-03-18T07:40:00.333Z,93.10
2023-03-18T07:42:27.297Z,93.10
2023-03-18T07:44:55.177Z,93.20
2023-03-18T07:47:24.040Z,93.10
2023-03-18T07:49:51.900Z,93.20
2023-03-18T07:52:18.863Z,93.20
2023-03-18T07:54:45.878Z,93.10
2023-03-18T07:57:12.981Z,93.10
2023-03-18T07:59:40.065Z,93.10
2023-03-18T08:02:08.732Z,93.00
2023-03-18T08:04:36.429Z,93.00
2023-03-18T08:07:03.427Z,93.00
2023-03-18T08:09:30.470Z,93.10
2023-03-18T08:11:57.548Z,93.00
2023-03-18T08:14:24.430Z,92.90
2023-03-18T08:16:51.339Z,92.90
2023-03-18T08:19:18.268Z,92.90
2023-03-18T08:21:45.196Z,93.10
2023-03-18T08:24:12.135Z,93.20
2023-03-18T08:26:39.170Z,93.00
2023-03-18T08:29:06.188Z,93.00
2023-03-18T08:31:33.247Z,93.20
2023-03-18T08:34:00.824Z,93.30
2023-03-18T08:36:28.724Z,93.40
2023-03-18T08:38:56.546Z,93.40
2023-03-18T08:41:25.657Z,93.40
2023-03-18T08:43:53.162Z,93.60
2023-03-18T08:46:20.254Z,93.40
2023-03-18T08:48:47.289Z,93.20
2023-03-18T08:51:14.580Z,93.40
2023-03-18T08:53:41.542Z,93.20
2023-03-18T08:56:08.781Z,93.30
2023-03-18T08:58:36.208Z,93.40
2023-03-18T09:01:05.244Z,93.50
2023-03-18T09:03:32.271Z,93.60
2023-03-18T09:05:59.255Z,93.30
2023-03-18T09:08:26.240Z,93.50
2023-03-18T09:10:53.772Z,93.40
2023-03-18T09:13:21.553Z,93.40
2023-03-18T09:15:48.679Z,93.30
2023-03-18T09:18:16.361Z,93.30
2023-03-18T09:20:45.176Z,93.30
2023-03-18T09:23:13.467Z,93.30
2023-03-18T09:25:42.585Z,93.30
2023-03-18T09:28:09.748Z,93.10
2023-03-18T09:30:37.716Z,93.30
2023-03-18T09:33:06.866Z,93.20
2023-03-18T09:35:35.015Z,92.60
2023-03-18T09:38:02.364Z,92.70
2023-03-18T09:40:33.407Z,92.80
2023-03-18T09:43:19.067Z,93.00
2023-03-18T09:45:46.971Z,92.90
2023-03-18T09:48:34.547Z,92.70
2023-03-18T09:51:13.594Z,92.70
2023-03-18T09:53:43.540Z,92.50
2023-03-18T09:56:19.142Z,92.50
2023-03-18T09:58:55.132Z,92.40
2023-03-18T10:01:23.876Z,92.10
2023-03-18T10:03:57.848Z,91.80
2023-03-18T10:06:24.932Z,91.90
2023-03-18T10:08:51.870Z,92.00
2023-03-18T10:11:31.068Z,91.60
2023-03-18T10:14:17.529Z,91.60
2023-03-18T10:17:04.792Z,91.60
2023-03-18T10:19:32.909Z,91.50
2023-03-18T10:22:15.020Z,91.10
2023-03-18T10:24:48.003Z,91.50
2023-03-18T10:27:16.259Z,91.30
2023-03-18T10:30:03.741Z,90.80
2023-03-18T10:32:48.999Z,90.50
2023-03-18T10:35:19.343Z,90.70
2023-03-18T10:37:51.402Z,90.50
2023-03-18T10:40:19.111Z,90.50
2023-03-18T10:42:47.367Z,90.30
2023-03-18T10:45:23.517Z,90.50
2023-03-18T10:47:53.568Z,90.40
2023-03-18T10:50:40.807Z,90.00
2023-03-18T10:53:08.501Z,90.10
2023-03-18T10:55:38.121Z,89.70
2023-03-18T10:58:14.790Z,88.90
2023-03-18T11:00:41.854Z,88.20
2023-03-18T11:03:18.427Z,87.60
2023-03-18T11:05:45.852Z,87.80
2023-03-18T11:08:28.816Z,89.00
2023-03-18T11:10:55.760Z,87.50
2023-03-18T11:13:23.380Z,86.50
2023-03-18T11:15:54.928Z,87.70
2023-03-18T11:18:23.728Z,88.00
2023-03-18T11:21:00.935Z,87.90
2023-03-18T11:23:49.030Z,85.30
2023-03-18T11:26:21.783Z,85.60
2023-03-18T11:28:48.750Z,84.80
2023-03-18T11:31:18.797Z,83.50
2023-03-18T11:33:45.795Z,82.40
2023-03-18T11:36:22.838Z,82.90
2023-03-18T11:39:01.989Z,83.30
2023-03-18T11:41:30.149Z,82.30
2023-03-18T11:43:59.220Z,83.40
2023-03-18T11:46:33.840Z,81.70
2023-03-18T11:49:00.892Z,80.00
2023-03-18T11:51:39.729Z,82.90
2023-03-18T11:54:06.807Z,80.10
2023-03-18T11:56:34.981Z,80.30
2023-03-18T11:59:07.691Z,76.70
2023-03-18T12:01:57.659Z,76.20
2023-03-18T12:04:27.643Z,78.70
2023-03-18T12:07:01.310Z,77.70
2023-03-18T12:09:41.767Z,79.40
2023-03-18T12:12:08.867Z,78.50
2023-03-18T12:14:35.840Z,78.50
2023-03-18T12:17:21.452Z,78.70
2023-03-18T12:19:57.303Z,78.80
2023-03-18T12:22:24.210Z,78.40
2023-03-18T12:25:02.412Z,78.40
2023-03-18T12:27:32.470Z,78.60
2023-03-18T12:30:11.652Z,79.70
2023-03-18T12:32:38.564Z,80.10
2023-03-18T12:35:24.472Z,79.20
2023-03-18T12:38:03.050Z,80.40
2023-03-18T12:40:35.623Z,79.60
2023-03-18T12:43:05.418Z,79.70
2023-03-18T12:45:40.825Z,80.10
2023-03-18T12:48:44.078Z,79.30
2023-03-18T12:51:24.145Z,80.30
2023-03-18T12:53:55.129Z,79.70
2023-03-18T12:56:27.514Z,79.50
2023-03-18T12:58:56.952Z,79.40
2023-03-18T13:01:45.400Z,77.50
2023-03-18T13:04:14.773Z,77.70
2023-03-18T13:06:44.544Z,77.00
2023-03-18T13:09:30.726Z,77.80
2023-03-18T13:12:04.198Z,77.80
2023-03-18T13:14:39.261Z,77.00
2023-03-18T13:17:10.602Z,76.50
2023-03-18T13:19:39.068Z,77.10
2023-03-18T13:22:26.144Z,76.80
2023-03-18T13:24:54.073Z,76.90
2023-03-18T13:27:32.018Z,76.20
2023-03-18T13:30:10.931Z,76.40
2023-03-18T13:32:49.875Z,75.10
2023-03-18T13:35:19.638Z,75.60
2023-03-18T13:37:46.500Z,75.30
2023-03-18T13:40:32.246Z,74.90
2023-03-18T13:43:01.320Z,73.40
2023-03-18T13:45:38.213Z,74.80
2023-03-18T13:48:07.425Z,76.00
2023-03-18T13:50:34.636Z,75.60
2023-03-18T13:53:02.968Z,75.70
2023-03-18T13:55:39.632Z,75.00
2023-03-18T13:58:18.014Z,73.30
2023-03-18T14:01:07.516Z,72.00
2023-03-18T14:03:41.555Z,72.10
2023-03-18T14:06:08.520Z,71.30
2023-03-18T14:08:38.382Z,70.90
2023-03-18T14:11:17.430Z,70.50
2023-03-18T14:13:44.890Z,69.30
2023-03-18T14:16:12.891Z,70.70
2023-03-18T14:18:40.181Z,70.00
2023-03-18T14:21:23.466Z,71.20
2023-03-18T14:24:17.096Z,71.40
2023-03-18T14:26:49.310Z,68.70
2023-03-18T14:29:23.523Z,68.90
2023-03-18T14:31:55.216Z,69.10
2023-03-18T14:34:23.296Z,68.90
2023-03-18T14:36:53.028Z,69.10
2023-03-18T14:39:28.877Z,69.90
2023-03-18T14:41:57.684Z,71.30
2023-03-18T14:44:28.277Z,69.70
2023-03-18T14:47:03.551Z,70.40
2023-03-18T14:49:31.697Z,69.40
2023-03-18T14:52:00.217Z,68.90
2023-03-18T14:54:30.536Z,69.70
2023-03-18T14:56:58.031Z,69.70
2023-03-18T14:59:25.419Z,70.10
2023-03-18T15:01:54.221Z,70.10
2023-03-18T15:04:22.690Z,70.10
2023-03-18T15:06:50.530Z,71.90
2023-03-18T15:09:19.359Z,70.80
2023-03-18T15:11:47.578Z,69.80
2023-03-18T15:14:21.498Z,70.00
2023-03-18T15:16:49.527Z,69.30
2023-03-18T15:19:20.402Z,71.10
2023-03-18T15:21:47.534Z,71.40
2023-03-18T15:24:18.226Z,70.40
2023-03-18T15:26:45.604Z,70.30
2023-03-18T15:29:33.347Z,70.50
2023-03-18T15:32:10.362Z,70.10
2023-03-18T15:34:38.162Z,71.00
2023-03-18T15:37:23.332Z,69.90
2023-03-18T15:39:55.640Z,69.60
2023-03-18T15:42:22.979Z,70.80
2023-03-18T15:44:54.507Z,70.20
2023-03-18T15:47:27.334Z,69.00
2023-03-18T15:49:58.847Z,69.30
2023-03-18T15:52:27.420Z,70.30
2023-03-18T15:54:54.394Z,70.10
2023-03-18T15:57:28.848Z,70.30
2023-03-18T15:59:55.805Z,69.00
2023-03-18T16:02:23.637Z,69.20
2023-03-18T16:04:50.588Z,70.80
2023-03-18T16:07:23.095Z,71.90
2023-03-18T16:09:51.061Z,70.00
2023-03-18T16:12:19.353Z,70.80
2023-03-18T16:14:47.772Z,70.30
2023-03-18T16:17:16.664Z,70.40
2023-03-18T16:19:45.542Z,70.50
2023-03-18T16:22:14.118Z,70.80
2023-03-18T16:24:43.665Z,73.80
2023-03-18T16:27:23.339Z,75.20
2023-03-18T16:29:50.261Z,76.70
2023-03-18T16:32:17.325Z,77.80
2023-03-18T16:34:46.689Z,78.50
2023-03-18T16:37:24.586Z,79.50
2023-03-18T16:39:52.035Z,81.00
2023-03-18T16:42:19.069Z,81.60
2023-03-18T16:44:46.019Z,82.10
2023-03-18T16:47:21.119Z,82.50
2023-03-18T16:49:48.602Z,83.00
2023-03-18T16:52:15.614Z,83.20
2023-03-18T16:54:42.783Z,83.50
2023-03-18T16:57:16.168Z,83.20
2023-03-18T16:59:44.767Z,81.90
2023-03-18T17:02:31.123Z,79.70
2023-03-18T17:04:58.635Z,81.30
2023-03-18T17:07:26.469Z,82.40
2023-03-18T17:09:53.469Z,82.00
2023-03-18T17:12:21.414Z,82.20
2023-03-18T17:14:53.084Z,80.00
2023-03-18T17:17:22.731Z,81.10
2023-03-18T17:19:49.605Z,82.00
2023-03-18T17:22:20.795Z,81.90
2023-03-18T17:24:48.257Z,82.90
2023-03-18T17:27:26.020Z,83.40
2023-03-18T17:29:53.511Z,83.40
2023-03-18T17:32:21.928Z,83.20
2023-03-18T17:34:50.535Z,82.50
2023-03-18T17:37:17.891Z,82.50
2023-03-18T17:39:44.773Z,83.00
2023-03-18T17:42:29.377Z,84.10
2023-03-18T17:44:59.382Z,83.80
2023-03-18T17:47:26.337Z,83.30
2023-03-18T17:49:53.848Z,83.00
2023-03-18T17:52:21.579Z,83.80
2023-03-18T17:54:48.522Z,82.40
2023-03-18T17:57:16.114Z,81.80
2023-03-18T17:59:43.158Z,83.40
2023-03-18T18:02:12.647Z,83.80
2023-03-18T18:04:41.291Z,82.80
2023-03-18T18:07:21.708Z,82.00
2023-03-18T18:09:49.563Z,81.30
2023-03-18T18:12:19.759Z,81.30
2023-03-18T18:14:47.529Z,81.60
2023-03-18T18:17:15.309Z,82.20
2023-03-18T18:19:42.864Z,82.60
2023-03-18T18:22:20.699Z,81.30
2023-03-18T18:24:48.242Z,81.40
2023-03-18T18:27:15.649Z,81.60
2023-03-18T18:29:45.889Z,82.20
2023-03-18T18:32:13.130Z,83.20
2023-03-18T18:34:40.154Z,84.30
2023-03-18T18:37:08.046Z,84.10
2023-03-18T18:39:34.987Z,84.00
2023-03-18T18:42:01.972Z,83.80
2023-03-18T18:44:29.249Z,82.80
2023-03-18T18:46:57.171Z,82.50
2023-03-18T18:49:24.455Z,83.70
2023-03-18T18:51:53.400Z,83.60
2023-03-18T18:54:24.466Z,84.40
2023-03-18T18:56:52.139Z,84.30
2023-03-18T18:59:26.493Z,83.50
2023-03-18T19:01:54.017Z,83.20
2023-03-18T19:04:22.755Z,83.20
2023-03-18T19:06:50.989Z,83.10
2023-03-18T19:09:19.197Z,83.20
2023-03-18T19:11:46.669Z,83.70
2023-03-18T19:14:17.121Z,83.90
2023-03-18T19:16:44.139Z,84.00
2023-03-18T19:19:13.456Z,84.20
2023-03-18T19:21:40.817Z,84.20
2023-03-18T19:24:23.550Z,84.20
2023-03-18T19:26:50.921Z,84.20
2023-03-18T19:29:17.958Z,84.00
2023-03-18T19:31:45.526Z,84.00
2023-03-18T19:34:16.689Z,84.20
2023-03-18T19:36:44.270Z,84.60
2023-03-18T19:39:18.561Z,84.20
2023-03-18T19:41:47.525Z,84.70
2023-03-18T19:44:16.525Z,83.80
2023-03-18T19:46:44.263Z,82.80
2023-03-18T19:49:17.132Z,83.00
2023-03-18T19:51:44.098Z,82.60
2023-03-18T19:54:20.278Z,82.00
2023-03-18T19:56:47.422Z,82.30
2023-03-18T19:59:19.441Z,81.90
2023-03-18T20:01:46.841Z,81.90
2023-03-18T20:04:18.574Z,81.60
2023-03-18T20:06:50.047Z,81.80
2023-03-18T20:09:17.906Z,81.50
2023-03-18T20:11:45.571Z,81.50
2023-03-18T20:14:24.122Z,81.50
2023-03-18T20:16:51.225Z,81.70
2023-03-18T20:19:18.173Z,81.80
2023-03-18T20:21:45.513Z,82.00
2023-03-18T20:24:13.989Z,82.40
2023-03-18T20:26:40.890Z,82.40
2023-03-18T20:29:18.057Z,82.60
2023-03-18T20:31:45.180Z,82.70
2023-03-18T20:34:12.127Z,82.50
2023-03-18T20:36:39.908Z,83.00
2023-03-18T20:39:07.919Z,83.30
2023-03-18T20:41:35.839Z,83.60
2023-03-18T20:44:03.490Z,83.40
2023-03-18T20:46:31.010Z,83.50
2023-03-18T20:48:57.960Z,83.50
2023-03-18T20:51:27.902Z,83.90
2023-03-18T20:53:55.088Z,84.30
2023-03-18T20:56:22.975Z,84.80
2023-03-18T20:58:50.319Z,85.00
2023-03-18T21:01:18.299Z,85.70
2023-03-18T21:03:45.386Z,85.30
2023-03-18T21:06:14.197Z,84.90
2023-03-18T21:08:41.439Z,85.00
2023-03-18T21:11:27.376Z,84.80
2023-03-18T21:13:54.330Z,85.20
2023-03-18T21:16:21.457Z,84.40
2023-03-18T21:18:49.738Z,84.50
2023-03-18T21:21:23.801Z,83.30
2023-03-18T21:23:51.753Z,83.00
2023-03-18T21:26:18.749Z,82.90
2023-03-18T21:28:45.884Z,83.40
2023-03-18T21:31:18.667Z,83.50
2023-03-18T21:33:46.495Z,84.20
2023-03-18T21:36:13.408Z,84.80
2023-03-18T21:38:40.433Z,85.40
2023-03-18T21:41:16.737Z,85.40
2023-03-18T21:43:43.684Z,85.40
2023-03-18T21:46:12.528Z,86.10
2023-03-18T21:48:39.924Z,86.50
2023-03-18T21:51:07.277Z,86.80
2023-03-18T21:53:34.179Z,87.10
2023-03-18T21:56:01.513Z,87.00
2023-03-18T21:58:28.474Z,87.20
2023-03-18T22:00:57.137Z,87.40
2023-03-18T22:03:24.877Z,87.40
2023-03-18T22:05:52.681Z,87.30
2023-03-18T22:08:20.314Z,87.50
2023-03-18T22:10:48.278Z,87.70
2023-03-18T22:13:18.012Z,87.60
2023-03-18T22:15:46.501Z,87.40
2023-03-18T22:18:14.722Z,87.00
2023-03-18T22:20:42.528Z,86.70
2023-03-18T22:23:17.441Z,87.00
2023-03-18T22:25:45.417Z,87.00
2023-03-18T22:28:12.527Z,87.10
2023-03-18T22:30:41.834Z,87.20
2023-03-18T22:33:15.712Z,87.20
2023-03-18T22:35:42.786Z,87.50
2023-03-18T22:38:13.313Z,87.50
2023-03-18T22:40:41.426Z,87.50
2023-03-18T22:43:16.540Z,86.90
2023-03-18T22:45:43.442Z,87.30
2023-03-18T22:48:15.341Z,87.60
2023-03-18T22:50:42.278Z,87.90
2023-03-18T22:53:12.983Z,87.80
2023-03-18T22:55:40.784Z,87.60
2023-03-18T22:58:14.179Z,87.50
2023-03-18T23:00:42.047Z,87.20
2023-03-18T23:03:14.578Z,87.10
2023-03-18T23:05:41.576Z,87.80
2023-03-18T23:08:08.512Z,88.40
2023-03-18T23:10:36.340Z,89.60
2023-03-18T23:13:11.139Z,89.10
2023-03-18T23:15:38.025Z,89.20
2023-03-18T23:18:06.578Z,89.00
2023-03-18T23:20:34.972Z,89.10
2023-03-18T23:23:02.053Z,88.50
2023-03-18T23:25:28.977Z,88.30
2023-03-18T23:27:55.916Z,88.70
2023-03-18T23:30:22.874Z,88.90
2023-03-18T23:32:50.013Z,88.80
2023-03-18T23:35:17.280Z,88.90
2023-03-18T23:37:44.328Z,89.00
2023-03-18T23:40:11.552Z,88.70
2023-03-18T23:42:38.522Z,88.90
2023-03-18T23:45:05.833Z,89.10
2023-03-18T23:47:32.798Z,89.30
2023-03-18T23:49:59.790Z,89.70
2023-03-18T23:52:26.757Z,89.30
2023-03-18T23:54:53.707Z,89.40
2023-03-18T23:57:20.631Z,89.40
2023-03-18T23:59:47.538Z,90.00
